Messwerte George

Temperatur

Temperatur
°C
1624111200 16.00 16.00 21
1624114800 17.00 17.00 19
1624118400 18.00 18.00 17
1624122000 19.00 19.00 13
1624125600 20.00 20.00 14
1624129200 21.00 21.00 13
1624132800 22.00 22.00
1624136400 23.00 23.00 17
1624140000 0.00 0.00 18
1624143600 1.00 1.00 20
1624147200 2.00 2.00 21
1624150800 3.00 3.00 20
1624154400 4.00 4.00 19
1624158000 5.00 5.00 19
1624161600 6.00 6.00 21
1624165200 7.00 7.00
1624168800 8.00 8.00 23
1624172400 9.00 9.00 24
1624176000 10.00 10.00 26
1624179600 11.00 11.00 28
1624183200 12.00 12.00 28
1624186800 13.00 13.00 28
1624190400 14.00 14.00 29
1624194000 15.00 15.00 29

Aktuellste Messwerte

Wettercharakter
Wetter: recht sonnig
Temperatur
29 °C
Feuchtigkeit
20 %
Wind
35 km/hWindrichtung: Nord
Böen
55 km/h
Luftdruck
1017 hPa
Messzeit: 20. Juni 2021, 15.00Datenquelle: METAR

Weitere Messstationen in der Nähe

Messstation Temperatur Entfernung
Port Elizabeth 30 °C 298 km
Kapstadt 26 °C 348 km
Langebaanweg 28 °C 407 km

Wind

Windrichtung Böen Mittelwind
° km/h km/h
1624111200 16.00 15.00 - 16.00 110° 10
1624114800 17.00 16.00 - 17.00 90° 5
1624118400 18.00 17.00 - 18.00 50° 5
1624122000 19.00 18.00 - 19.00 70° 5
1624125600 20.00 19.00 - 20.00 350° 5
1624129200 21.00 20.00 - 21.00 5
1624132800 22.00 21.00 - 22.00
1624136400 23.00 22.00 - 23.00 20° 5
1624140000 0.00 23.00 - 0.00 5
1624143600 1.00 0.00 - 1.00 320° 10
1624147200 2.00 1.00 - 2.00 290° 15
1624150800 3.00 2.00 - 3.00 310° 5
1624154400 4.00 3.00 - 4.00 5
1624158000 5.00 4.00 - 5.00 5
1624161600 6.00 5.00 - 6.00 290° 5
1624165200 7.00 6.00 - 7.00
1624168800 8.00 7.00 - 8.00 340° 25
1624172400 9.00 8.00 - 9.00 340° 25
1624176000 10.00 9.00 - 10.00 340° 20
1624179600 11.00 10.00 - 11.00 340° 20
1624183200 12.00 11.00 - 12.00 340° 30
1624186800 13.00 12.00 - 13.00 330° 30
1624190400 14.00 13.00 - 14.00 330° 35
1624194000 15.00 14.00 - 15.00 340° 55 35

Ihre Wetterstation

Fehlt Ihre Wetterstation auf unserem Portal?

Schreiben Sie an network@meteonews.ch

Klima

Wann ist es am wärmsten? Wann regnet es am wenigsten? Unsere Klimadaten geben Auskunft.